createdAt,value
2023-05-24T00:00:44.542Z,54.72
2023-05-24T00:01:44.522Z,53.75
2023-05-24T00:02:43.674Z,51.61
2023-05-24T00:03:44.588Z,51.00
2023-05-24T00:04:44.515Z,53.67
2023-05-24T00:05:44.498Z,53.34
2023-05-24T00:06:44.477Z,52.33
2023-05-24T00:07:43.448Z,51.29
2023-05-24T00:08:44.446Z,54.20
2023-05-24T00:09:43.465Z,52.13
2023-05-24T00:10:43.574Z,53.20
2023-05-24T00:11:44.429Z,50.88
2023-05-24T00:12:43.419Z,51.85
2023-05-24T00:13:44.445Z,51.35
2023-05-24T00:14:43.424Z,51.60
2023-05-24T00:15:45.207Z,50.14
2023-05-24T00:16:43.449Z,52.40
2023-05-24T00:17:43.444Z,51.82
2023-05-24T00:18:44.392Z,48.85
2023-05-24T00:19:44.370Z,48.77
2023-05-24T00:20:44.846Z,51.32
2023-05-24T00:21:44.371Z,47.26
2023-05-24T00:22:43.358Z,50.70
2023-05-24T00:23:43.338Z,50.08
2023-05-24T00:24:43.319Z,49.35
2023-05-24T00:25:44.332Z,49.92
2023-05-24T00:26:43.337Z,51.45
2023-05-24T00:27:44.330Z,50.49
2023-05-24T00:28:44.308Z,49.51
2023-05-24T00:29:44.311Z,49.05
2023-05-24T00:30:44.447Z,48.83
2023-05-24T00:31:43.398Z,49.52
2023-05-24T00:32:43.350Z,49.13
2023-05-24T00:33:43.274Z,49.09
2023-05-24T00:34:44.266Z,48.73
2023-05-24T00:35:43.277Z,49.06
2023-05-24T00:36:44.258Z,48.53
2023-05-24T00:37:43.283Z,50.26
2023-05-24T00:38:43.272Z,48.04
2023-05-24T00:39:43.256Z,45.15
2023-05-24T00:40:44.405Z,46.71
2023-05-24T00:41:43.246Z,45.45
2023-05-24T00:42:44.297Z,49.54
2023-05-24T00:43:43.343Z,46.26
2023-05-24T00:44:44.313Z,46.85
2023-05-24T00:45:44.399Z,49.17
2023-05-24T00:46:43.398Z,46.71
2023-05-24T00:47:43.473Z,46.93
2023-05-24T00:48:43.449Z,46.51
2023-05-24T00:49:44.448Z,47.24
2023-05-24T00:50:44.581Z,46.93
2023-05-24T00:51:43.504Z,46.65
2023-05-24T00:52:43.574Z,45.49
2023-05-24T00:53:43.576Z,48.36
2023-05-24T00:54:43.622Z,48.56
2023-05-24T00:55:44.625Z,47.77
2023-05-24T00:56:44.675Z,45.32
2023-05-24T00:57:43.689Z,47.18
2023-05-24T00:58:44.719Z,47.70
2023-05-24T00:59:44.763Z,46.14
2023-05-24T01:00:43.852Z,45.83
2023-05-24T01:01:43.833Z,48.17
2023-05-24T01:02:43.938Z,44.28
2023-05-24T01:03:44.024Z,46.00
2023-05-24T01:04:43.919Z,44.58
2023-05-24T01:05:44.956Z,45.54
2023-05-24T01:06:45.117Z,45.03
2023-05-24T01:07:45.039Z,45.56
2023-05-24T01:08:45.058Z,45.36
2023-05-24T01:09:45.097Z,46.41
2023-05-24T01:10:44.307Z,45.03
2023-05-24T01:11:45.158Z,46.11
2023-05-24T01:12:45.219Z,45.01
2023-05-24T01:13:44.211Z,47.91
2023-05-24T01:14:44.262Z,45.18
2023-05-24T01:15:45.321Z,44.45
2023-05-24T01:16:44.321Z,44.59
2023-05-24T01:17:45.429Z,46.52
2023-05-24T01:18:45.406Z,46.97
2023-05-24T01:19:45.381Z,45.47
2023-05-24T01:20:44.767Z,43.11
2023-05-24T01:21:45.444Z,45.11
2023-05-24T01:22:45.487Z,45.24
2023-05-24T01:23:44.513Z,43.53
2023-05-24T01:24:45.587Z,45.11
2023-05-24T01:25:45.598Z,42.40
2023-05-24T01:26:44.615Z,44.20
2023-05-24T01:27:45.656Z,43.94
2023-05-24T01:28:44.682Z,43.55
2023-05-24T01:29:44.735Z,42.80
2023-05-24T01:30:45.764Z,44.03
2023-05-24T01:31:44.785Z,42.95
2023-05-24T01:32:45.787Z,41.01
2023-05-24T01:33:45.837Z,43.59
2023-05-24T01:34:45.814Z,40.83
2023-05-24T01:35:44.810Z,40.34
2023-05-24T01:36:45.833Z,40.93
2023-05-24T01:37:44.850Z,42.96
2023-05-24T01:38:44.855Z,39.81
2023-05-24T01:39:45.871Z,40.32
2023-05-24T01:40:45.881Z,39.89
2023-05-24T01:41:45.883Z,42.30
2023-05-24T01:42:44.938Z,42.39
2023-05-24T01:43:45.951Z,41.41
2023-05-24T01:44:45.999Z,40.08
2023-05-24T01:45:46.048Z,42.93
2023-05-24T01:46:45.055Z,40.73
2023-05-24T01:47:45.134Z,40.01
2023-05-24T01:48:46.095Z,42.15
2023-05-24T01:49:45.095Z,40.82
2023-05-24T01:50:46.181Z,42.27
2023-05-24T01:51:46.188Z,39.42
2023-05-24T01:52:46.198Z,40.67
2023-05-24T01:53:45.208Z,42.49
2023-05-24T01:54:45.244Z,41.13
2023-05-24T01:55:46.247Z,41.12
2023-05-24T01:56:45.283Z,41.49
2023-05-24T01:57:46.318Z,38.29
2023-05-24T01:58:46.306Z,39.38
2023-05-24T01:59:46.333Z,40.76
2023-05-24T02:00:45.500Z,40.38
2023-05-24T02:01:45.394Z,41.25
2023-05-24T02:02:46.582Z,37.86
2023-05-24T02:03:45.436Z,38.38
2023-05-24T02:04:45.472Z,40.50
2023-05-24T02:05:45.553Z,37.69
2023-05-24T02:06:46.587Z,40.21
2023-05-24T02:07:45.594Z,39.17
2023-05-24T02:08:45.637Z,39.96
2023-05-24T02:09:46.701Z,41.57
2023-05-24T02:10:45.696Z,39.50
2023-05-24T02:11:46.744Z,40.16
2023-05-24T02:12:45.789Z,37.60
2023-05-24T02:13:45.820Z,36.92
2023-05-24T02:14:46.845Z,39.44
2023-05-24T02:15:46.885Z,38.58
2023-05-24T02:16:47.125Z,39.53
2023-05-24T02:17:46.980Z,40.15
2023-05-24T02:18:46.963Z,38.09
2023-05-24T02:19:45.958Z,38.75
2023-05-24T02:20:47.137Z,39.88
2023-05-24T02:21:47.023Z,39.64
2023-05-24T02:22:46.066Z,39.42
2023-05-24T02:23:47.094Z,38.61
2023-05-24T02:24:47.140Z,38.94
2023-05-24T02:25:46.119Z,37.77
2023-05-24T02:26:47.160Z,38.44
2023-05-24T02:27:47.267Z,36.79
2023-05-24T02:28:47.243Z,36.64
2023-05-24T02:29:47.262Z,39.24
2023-05-24T02:30:47.350Z,37.20
2023-05-24T02:31:46.352Z,36.00
2023-05-24T02:32:46.421Z,39.56
2023-05-24T02:33:46.437Z,39.32
2023-05-24T02:34:47.463Z,38.71
2023-05-24T02:35:46.481Z,35.90
2023-05-24T02:36:47.539Z,37.69
2023-05-24T02:37:47.569Z,37.25
2023-05-24T02:38:47.621Z,36.29
2023-05-24T02:39:47.630Z,36.64
2023-05-24T02:40:47.639Z,38.28
2023-05-24T02:41:47.709Z,39.84
2023-05-24T02:42:46.749Z,37.28
2023-05-24T02:43:47.735Z,36.14
2023-05-24T02:44:47.735Z,36.68
2023-05-24T02:45:46.750Z,35.68
2023-05-24T02:46:47.834Z,38.11
2023-05-24T02:47:47.851Z,38.96
2023-05-24T02:48:47.877Z,35.67
2023-05-24T02:49:47.876Z,36.67
2023-05-24T02:50:46.909Z,37.48
2023-05-24T02:51:47.945Z,36.05
2023-05-24T02:52:47.964Z,38.85
2023-05-24T02:53:47.001Z,38.40
2023-05-24T02:54:48.053Z,36.24
2023-05-24T02:55:48.069Z,36.63
2023-05-24T02:56:48.092Z,33.58
2023-05-24T02:57:48.196Z,33.35
2023-05-24T02:58:48.167Z,35.55
2023-05-24T02:59:47.210Z,36.49
2023-05-24T03:00:48.233Z,37.36
2023-05-24T03:01:47.280Z,35.01
2023-05-24T03:02:48.403Z,32.03
2023-05-24T03:03:48.361Z,33.73
2023-05-24T03:04:48.335Z,36.53
2023-05-24T03:05:48.373Z,36.99
2023-05-24T03:06:48.420Z,35.10
2023-05-24T03:07:48.434Z,34.88
2023-05-24T03:08:48.454Z,36.95
2023-05-24T03:09:48.488Z,35.40
2023-05-24T03:10:48.567Z,33.92
2023-05-24T03:11:47.546Z,34.27
2023-05-24T03:12:47.592Z,34.62
2023-05-24T03:13:48.705Z,31.48
2023-05-24T03:14:48.699Z,32.11
2023-05-24T03:15:48.883Z,32.18
2023-05-24T03:16:47.724Z,32.11
2023-05-24T03:17:48.793Z,33.83
2023-05-24T03:18:48.816Z,32.41
2023-05-24T03:19:47.890Z,31.76
2023-05-24T03:20:48.838Z,31.40
2023-05-24T03:21:48.877Z,32.10
2023-05-24T03:22:47.890Z,31.12
2023-05-24T03:23:48.953Z,31.62
2023-05-24T03:24:48.965Z,30.31
2023-05-24T03:25:48.999Z,30.25
2023-05-24T03:26:48.083Z,31.11
2023-05-24T03:27:49.083Z,31.77
2023-05-24T03:28:49.103Z,30.82
2023-05-24T03:29:48.128Z,32.89
2023-05-24T03:30:48.203Z,31.59
2023-05-24T03:31:48.267Z,33.15
2023-05-24T03:32:49.259Z,30.73
2023-05-24T03:33:48.269Z,32.77
2023-05-24T03:34:49.298Z,33.42
2023-05-24T03:35:49.283Z,34.42
2023-05-24T03:36:48.331Z,29.48
2023-05-24T03:37:49.333Z,32.28
2023-05-24T03:38:48.365Z,31.81
2023-05-24T03:39:49.406Z,30.10
2023-05-24T03:40:49.427Z,30.53
2023-05-24T03:41:48.483Z,32.33
2023-05-24T03:42:49.521Z,30.83
2023-05-24T03:43:49.539Z,30.01
2023-05-24T03:44:49.560Z,27.84
2023-05-24T03:45:48.714Z,29.24
2023-05-24T03:46:48.628Z,30.26
2023-05-24T03:47:48.761Z,32.76
2023-05-24T03:48:48.704Z,32.47
2023-05-24T03:49:48.731Z,30.06
2023-05-24T03:50:49.780Z,27.78
2023-05-24T03:51:49.815Z,29.45
2023-05-24T03:52:49.838Z,28.99
2023-05-24T03:53:49.886Z,30.03
2023-05-24T03:54:49.009Z,32.42
2023-05-24T03:55:49.920Z,29.73
2023-05-24T03:56:49.956Z,28.03
2023-05-24T03:57:48.988Z,28.78
2023-05-24T03:58:50.069Z,28.80
2023-05-24T03:59:50.053Z,31.65
2023-05-24T04:00:50.102Z,29.48
2023-05-24T04:01:50.116Z,30.12
2023-05-24T04:02:49.298Z,27.12
2023-05-24T04:03:50.264Z,27.13
2023-05-24T04:04:50.187Z,29.68
2023-05-24T04:05:49.225Z,31.89
2023-05-24T04:06:50.275Z,27.81
2023-05-24T04:07:49.279Z,27.20
2023-05-24T04:08:50.322Z,25.34
2023-05-24T04:09:50.353Z,27.00
2023-05-24T04:10:50.358Z,28.60
2023-05-24T04:11:50.379Z,30.03
2023-05-24T04:12:49.401Z,28.24
2023-05-24T04:13:50.406Z,29.46
2023-05-24T04:14:50.482Z,28.74
2023-05-24T04:15:50.464Z,27.08
2023-05-24T04:16:50.536Z,27.51
2023-05-24T04:17:50.560Z,27.62
2023-05-24T04:18:50.648Z,27.67
2023-05-24T04:19:50.587Z,26.81
2023-05-24T04:20:50.591Z,25.00
2023-05-24T04:21:50.623Z,27.73
2023-05-24T04:22:50.664Z,28.49
2023-05-24T04:23:49.683Z,27.47
2023-05-24T04:24:50.743Z,25.28
2023-05-24T04:25:50.734Z,28.18
2023-05-24T04:26:49.758Z,27.56
2023-05-24T04:27:50.770Z,26.25
2023-05-24T04:28:49.787Z,28.30
2023-05-24T04:29:50.800Z,28.67
2023-05-24T04:30:49.853Z,25.41
2023-05-24T04:31:50.882Z,25.20
2023-05-24T04:32:50.904Z,27.87
2023-05-24T04:33:50.885Z,28.88
2023-05-24T04:34:50.889Z,28.89
2023-05-24T04:35:50.883Z,30.90
2023-05-24T04:36:50.933Z,29.44
2023-05-24T04:37:50.960Z,29.94
2023-05-24T04:38:50.971Z,27.01
2023-05-24T04:39:50.006Z,29.25
2023-05-24T04:40:51.032Z,29.50
2023-05-24T04:41:51.048Z,26.74
2023-05-24T04:42:51.089Z,29.14
2023-05-24T04:43:51.061Z,29.52
2023-05-24T04:44:50.060Z,27.02
2023-05-24T04:45:51.107Z,27.74
2023-05-24T04:46:50.164Z,28.54
2023-05-24T04:47:50.210Z,28.37
2023-05-24T04:48:50.187Z,25.89
2023-05-24T04:49:51.200Z,29.80
2023-05-24T04:50:50.238Z,27.78
2023-05-24T04:51:52.432Z,27.30
2023-05-24T04:52:51.271Z,33.51
2023-05-24T04:53:50.284Z,29.80
2023-05-24T04:54:51.269Z,28.30
2023-05-24T04:55:51.247Z,27.78
2023-05-24T04:56:51.225Z,26.87
2023-05-24T04:57:51.227Z,26.63
2023-05-24T04:58:50.234Z,26.30
2023-05-24T04:59:50.217Z,25.00
2023-05-24T05:00:51.210Z,31.30
2023-05-24T05:01:51.298Z,27.21
2023-05-24T05:02:50.266Z,27.16
2023-05-24T05:03:51.272Z,26.38
2023-05-24T05:04:51.177Z,27.47
2023-05-24T05:05:51.159Z,28.65
2023-05-24T05:06:51.172Z,26.53
2023-05-24T05:07:51.156Z,27.81
2023-05-24T05:08:50.151Z,26.31
2023-05-24T05:09:50.135Z,26.64
2023-05-24T05:10:50.136Z,28.00
2023-05-24T05:11:51.122Z,29.22
2023-05-24T05:12:50.121Z,27.05
2023-05-24T05:13:51.119Z,27.16
2023-05-24T05:14:51.115Z,27.40
2023-05-24T05:15:50.112Z,26.07
2023-05-24T05:16:50.139Z,27.40
2023-05-24T05:17:50.143Z,27.78
2023-05-24T05:18:50.119Z,29.14
2023-05-24T05:19:51.117Z,28.98
2023-05-24T05:20:51.058Z,29.17
2023-05-24T05:21:51.090Z,29.43
2023-05-24T05:22:50.074Z,27.78
2023-05-24T05:23:51.043Z,26.19
2023-05-24T05:24:51.048Z,27.00
2023-05-24T05:25:50.041Z,28.44
2023-05-24T05:26:51.032Z,25.32
2023-05-24T05:27:51.024Z,29.88
2023-05-24T05:28:50.025Z,30.25
2023-05-24T05:29:50.012Z,28.04
2023-05-24T05:30:51.045Z,25.57
2023-05-24T05:31:50.032Z,29.41
2023-05-24T05:32:50.128Z,26.94
2023-05-24T05:33:50.023Z,30.65
2023-05-24T05:34:51.036Z,29.18
2023-05-24T05:35:53.441Z,26.85
2023-05-24T05:36:51.047Z,27.11
2023-05-24T05:37:51.017Z,27.30
2023-05-24T05:38:51.041Z,27.78
2023-05-24T05:39:50.038Z,28.07
2023-05-24T05:40:50.994Z,30.33
2023-05-24T05:41:50.993Z,27.20
2023-05-24T05:42:49.971Z,29.50
2023-05-24T05:43:50.982Z,27.71
2023-05-24T05:44:50.974Z,27.72
2023-05-24T05:45:50.040Z,28.15
2023-05-24T05:46:50.973Z,27.89
2023-05-24T05:47:50.987Z,26.71
2023-05-24T05:48:49.953Z,27.97
2023-05-24T05:49:50.935Z,28.56
2023-05-24T05:50:50.957Z,26.93
2023-05-24T05:51:49.936Z,27.71
2023-05-24T05:52:49.916Z,27.54
2023-05-24T05:53:50.929Z,27.37
2023-05-24T05:54:50.930Z,27.25
2023-05-24T05:55:50.880Z,26.52
2023-05-24T05:56:50.878Z,25.98
2023-05-24T05:57:50.874Z,26.09
2023-05-24T05:58:50.889Z,28.26
2023-05-24T05:59:49.891Z,26.23
2023-05-24T06:00:49.903Z,26.97
2023-05-24T06:01:49.921Z,26.38
2023-05-24T06:02:50.127Z,27.72
2023-05-24T06:03:50.149Z,27.38
2023-05-24T06:04:50.097Z,28.25
2023-05-24T06:05:51.036Z,29.58
2023-05-24T06:06:51.106Z,28.31
2023-05-24T06:07:50.094Z,29.35
2023-05-24T06:08:50.116Z,25.90
2023-05-24T06:09:51.140Z,27.71
2023-05-24T06:10:52.949Z,25.76
2023-05-24T06:11:50.120Z,29.10
2023-05-24T06:12:51.141Z,30.25
2023-05-24T06:13:50.127Z,28.85
2023-05-24T06:14:50.112Z,29.58
2023-05-24T06:15:51.125Z,28.49
2023-05-24T06:16:50.099Z,26.72
2023-05-24T06:17:51.144Z,27.62
2023-05-24T06:19:04.592Z,27.01
2023-05-24T06:19:51.129Z,27.41
2023-05-24T06:20:50.086Z,28.87
2023-05-24T06:21:50.072Z,28.85
2023-05-24T06:22:50.326Z,27.80
2023-05-24T06:23:51.062Z,27.28
2023-05-24T06:24:51.048Z,28.30
2023-05-24T06:25:51.032Z,25.28
2023-05-24T06:26:51.052Z,25.05
2023-05-24T06:27:51.018Z,28.35
2023-05-24T06:28:50.042Z,26.88
2023-05-24T06:29:51.043Z,27.87
2023-05-24T06:30:50.044Z,27.98
2023-05-24T06:31:51.409Z,25.00
2023-05-24T06:32:51.054Z,28.66
2023-05-24T06:34:02.740Z,26.49
2023-05-24T06:34:50.988Z,26.89
2023-05-24T06:35:50.054Z,28.18
2023-05-24T06:36:49.993Z,28.87
2023-05-24T06:37:50.950Z,28.27
2023-05-24T06:38:50.977Z,30.50
2023-05-24T06:39:50.942Z,28.96
2023-05-24T06:40:49.925Z,27.28
2023-05-24T06:41:50.946Z,25.05
2023-05-24T06:42:50.953Z,25.21
2023-05-24T06:43:49.929Z,26.89
2023-05-24T06:44:50.902Z,26.38
2023-05-24T06:45:50.905Z,25.97
2023-05-24T06:46:49.937Z,26.67
2023-05-24T06:47:50.957Z,29.22
2023-05-24T06:48:51.019Z,29.54
2023-05-24T06:49:50.874Z,26.09
2023-05-24T06:50:50.864Z,27.46
2023-05-24T06:51:50.854Z,26.51
2023-05-24T06:52:50.855Z,25.00
2023-05-24T06:53:50.842Z,28.59
2023-05-24T06:54:50.897Z,26.54
2023-05-24T06:55:50.846Z,27.17
2023-05-24T06:56:49.831Z,27.96
2023-05-24T06:57:50.925Z,26.89
2023-05-24T06:58:50.861Z,25.50
2023-05-24T06:59:50.887Z,26.48
2023-05-24T07:00:50.872Z,27.43
2023-05-24T07:01:50.840Z,27.93
2023-05-24T07:02:50.889Z,26.77
2023-05-24T07:03:50.762Z,25.98
2023-05-24T07:04:50.808Z,26.17
2023-05-24T07:05:50.743Z,25.00
2023-05-24T07:06:49.808Z,29.22
2023-05-24T07:07:49.819Z,27.51
2023-05-24T07:08:49.730Z,28.02
2023-05-24T07:09:50.735Z,28.79
2023-05-24T07:10:50.750Z,26.35
2023-05-24T07:11:50.758Z,27.21
2023-05-24T07:12:49.848Z,27.92
2023-05-24T07:13:50.701Z,31.02
2023-05-24T07:14:50.714Z,28.50
2023-05-24T07:15:50.693Z,27.51
2023-05-24T07:16:50.760Z,28.74
2023-05-24T07:17:50.724Z,27.07
2023-05-24T07:18:50.703Z,27.52
2023-05-24T07:19:49.816Z,29.04
2023-05-24T07:20:50.885Z,28.76
2023-05-24T07:21:49.789Z,29.21
2023-05-24T07:22:49.821Z,28.53
2023-05-24T07:23:50.878Z,30.58
2023-05-24T07:24:50.946Z,26.46
2023-05-24T07:25:49.973Z,27.71
2023-05-24T07:26:51.011Z,30.30
2023-05-24T07:27:51.015Z,27.31
2023-05-24T07:28:51.030Z,27.62
2023-05-24T07:29:51.076Z,27.89
2023-05-24T07:30:50.435Z,28.96
2023-05-24T07:31:51.140Z,28.36
2023-05-24T07:32:50.353Z,30.07
2023-05-24T07:33:51.175Z,29.85
2023-05-24T07:34:50.184Z,30.48
2023-05-24T07:35:51.266Z,28.03
2023-05-24T07:36:51.259Z,29.29
2023-05-24T07:37:51.259Z,29.80
2023-05-24T07:38:50.286Z,29.56
2023-05-24T07:39:51.321Z,30.04
2023-05-24T07:40:51.356Z,29.01
2023-05-24T07:41:50.359Z,28.19
2023-05-24T07:42:51.508Z,29.01
2023-05-24T07:43:50.407Z,29.62
2023-05-24T07:44:50.461Z,31.17
2023-05-24T07:45:51.492Z,30.29
2023-05-24T07:46:50.542Z,30.30
2023-05-24T07:47:50.547Z,31.59
2023-05-24T07:48:51.583Z,32.62
2023-05-24T07:49:51.887Z,33.36
2023-05-24T07:50:51.536Z,33.25
2023-05-24T07:51:51.599Z,35.88
2023-05-24T07:52:50.582Z,35.34
2023-05-24T07:53:51.893Z,39.44
2023-05-24T07:54:50.802Z,42.80
2023-05-24T07:55:50.768Z,45.23
2023-05-24T07:56:50.697Z,46.13
2023-05-24T07:57:51.759Z,49.15
2023-05-24T07:58:51.930Z,51.04
2023-05-24T07:59:51.864Z,51.98
2023-05-24T08:00:50.985Z,55.01
2023-05-24T08:01:51.926Z,55.34
2023-05-24T08:02:52.074Z,58.90
2023-05-24T08:03:52.109Z,62.05
2023-05-24T08:04:50.965Z,67.48
2023-05-24T08:05:50.959Z,65.42
2023-05-24T08:06:51.093Z,67.01
2023-05-24T08:07:51.046Z,66.66
2023-05-24T08:08:52.098Z,70.82
2023-05-24T08:09:52.181Z,80.79
2023-05-24T08:10:52.185Z,84.28
2023-05-24T08:11:51.187Z,93.06
2023-05-24T08:12:52.171Z,112.28
2023-05-24T08:13:52.194Z,119.88
2023-05-24T08:14:52.230Z,125.40
2023-05-24T08:15:52.294Z,132.55
2023-05-24T08:16:52.289Z,123.41
2023-05-24T08:17:52.234Z,140.15
2023-05-24T08:18:54.913Z,138.55
2023-05-24T08:19:51.238Z,138.75
2023-05-24T08:20:52.212Z,138.65
2023-05-24T08:21:51.177Z,127.42
2023-05-24T08:22:51.163Z,128.18
2023-05-24T08:23:52.182Z,130.55
2023-05-24T08:24:52.149Z,122.63
2023-05-24T08:25:51.153Z,124.19
2023-05-24T08:26:51.148Z,112.45
2023-05-24T08:27:52.248Z,106.88
2023-05-24T08:28:52.135Z,86.29
2023-05-24T08:29:53.587Z,81.61
2023-05-24T08:30:52.183Z,82.02
2023-05-24T08:31:51.139Z,81.81
2023-05-24T08:32:51.130Z,73.26
2023-05-24T08:33:52.120Z,67.30
2023-05-24T08:34:57.919Z,54.64
2023-05-24T08:35:52.084Z,73.05
2023-05-24T08:36:52.069Z,75.76
2023-05-24T08:37:52.135Z,61.62
2023-05-24T08:38:52.062Z,44.91
2023-05-24T08:39:51.048Z,57.39
2023-05-24T08:40:52.072Z,58.44
2023-05-24T08:42:07.956Z,57.01
2023-05-24T08:42:52.016Z,57.12
2023-05-24T08:43:52.017Z,55.21
2023-05-24T08:45:00.963Z,58.85
2023-05-24T08:45:52.071Z,57.48
2023-05-24T08:46:52.100Z,58.15
2023-05-24T08:47:52.130Z,58.42
2023-05-24T08:48:52.014Z,59.96
2023-05-24T08:49:52.010Z,65.64
2023-05-24T08:50:51.983Z,70.82
2023-05-24T08:51:51.957Z,81.67
2023-05-24T08:52:50.935Z,90.89
2023-05-24T08:53:52.124Z,96.40
2023-05-24T08:54:52.514Z,102.53
2023-05-24T08:55:51.947Z,109.07
2023-05-24T08:56:51.932Z,113.68
2023-05-24T08:57:51.930Z,116.83
2023-05-24T08:58:51.917Z,122.04
2023-05-24T08:59:51.909Z,125.56
2023-05-24T09:00:51.907Z,129.00
2023-05-24T09:01:51.935Z,131.54
2023-05-24T09:02:52.038Z,136.46
2023-05-24T09:03:50.970Z,138.48
2023-05-24T09:04:51.935Z,141.83
2023-05-24T09:05:50.888Z,142.05
2023-05-24T09:06:51.878Z,145.55
2023-05-24T09:07:51.860Z,145.97
2023-05-24T09:08:50.850Z,146.92
2023-05-24T09:09:51.885Z,151.45
2023-05-24T09:10:55.274Z,152.68
2023-05-24T09:11:51.983Z,153.01
2023-05-24T09:12:51.860Z,153.60
2023-05-24T09:13:51.849Z,154.35
2023-05-24T09:14:51.445Z,157.15
2023-05-24T09:15:51.849Z,159.58
2023-05-24T09:16:51.819Z,160.65
2023-05-24T09:17:51.838Z,164.02
2023-05-24T09:18:52.010Z,163.33
2023-05-24T09:19:51.818Z,162.56
2023-05-24T09:20:51.849Z,162.80
2023-05-24T09:21:51.755Z,154.23
2023-05-24T09:22:51.790Z,141.18
2023-05-24T09:23:50.745Z,137.29
2023-05-24T09:24:51.768Z,127.12
2023-05-24T09:25:51.832Z,116.20
2023-05-24T09:26:51.756Z,118.20
2023-05-24T09:27:51.812Z,107.41
2023-05-24T09:28:51.863Z,105.16
2023-05-24T09:29:50.958Z,103.96
2023-05-24T09:30:51.003Z,109.15
2023-05-24T09:31:52.072Z,106.30
2023-05-24T09:32:52.148Z,107.02
2023-05-24T09:33:52.123Z,110.64
2023-05-24T09:34:52.228Z,112.42
2023-05-24T09:35:51.163Z,116.56
2023-05-24T09:36:52.196Z,127.03
2023-05-24T09:37:51.228Z,130.50
2023-05-24T09:38:51.299Z,134.80
2023-05-24T09:39:52.283Z,140.05
2023-05-24T09:40:51.371Z,141.66
2023-05-24T09:41:52.324Z,145.28
2023-05-24T09:42:51.396Z,146.92
2023-05-24T09:43:51.373Z,148.45
2023-05-24T09:44:51.391Z,149.58
2023-05-24T09:45:52.394Z,154.16
2023-05-24T09:46:52.473Z,156.42
2023-05-24T09:47:52.496Z,154.89
2023-05-24T09:48:52.492Z,162.25
2023-05-24T09:49:52.525Z,163.30
2023-05-24T09:50:51.986Z,165.42
2023-05-24T09:51:51.602Z,168.45
2023-05-24T09:52:51.612Z,170.53
2023-05-24T09:53:52.684Z,167.00
2023-05-24T09:54:52.719Z,167.08
2023-05-24T09:55:52.838Z,167.26
2023-05-24T09:56:51.682Z,167.44
2023-05-24T09:57:52.645Z,161.10
2023-05-24T09:58:51.805Z,148.58
2023-05-24T09:59:52.627Z,142.46
2023-05-24T10:00:52.678Z,140.57
2023-05-24T10:01:52.671Z,135.91
2023-05-24T10:02:53.864Z,136.86
2023-05-24T10:03:51.922Z,131.61
2023-05-24T10:04:53.079Z,120.27
2023-05-24T10:05:52.803Z,105.86
2023-05-24T10:06:51.830Z,102.31
2023-05-24T10:07:52.787Z,103.55
2023-05-24T10:08:52.843Z,106.50
2023-05-24T10:09:51.817Z,104.51
2023-05-24T10:10:52.076Z,105.94
2023-05-24T10:11:52.894Z,109.15
2023-05-24T10:12:52.936Z,94.75
2023-05-24T10:13:51.938Z,95.74
2023-05-24T10:14:52.978Z,102.95
2023-05-24T10:15:53.055Z,100.85
2023-05-24T10:16:52.123Z,89.13
2023-05-24T10:17:53.200Z,89.03
2023-05-24T10:18:52.157Z,82.06
2023-05-24T10:19:53.249Z,67.49
2023-05-24T10:20:53.531Z,80.21
2023-05-24T10:21:53.253Z,88.34
2023-05-24T10:22:52.256Z,84.78
2023-05-24T10:23:52.282Z,86.64
2023-05-24T10:24:53.313Z,89.68
2023-05-24T10:25:53.366Z,90.76
2023-05-24T10:26:53.427Z,91.50
2023-05-24T10:27:53.486Z,98.49
2023-05-24T10:28:53.538Z,101.16
2023-05-24T10:29:53.594Z,102.11
2023-05-24T10:30:52.724Z,107.81
2023-05-24T10:31:53.690Z,109.48
2023-05-24T10:32:52.772Z,112.92
2023-05-24T10:33:57.123Z,115.34
2023-05-24T10:34:53.768Z,115.73
2023-05-24T10:35:52.803Z,116.51
2023-05-24T10:36:52.753Z,118.73
2023-05-24T10:37:53.745Z,120.83
2023-05-24T10:38:53.757Z,128.79
2023-05-24T10:39:53.743Z,129.07
2023-05-24T10:40:53.754Z,132.04
2023-05-24T10:41:52.737Z,135.89
2023-05-24T10:42:53.710Z,138.89
2023-05-24T10:44:08.008Z,139.14
2023-05-24T10:44:53.706Z,139.51
2023-05-24T10:45:53.726Z,140.58
2023-05-24T10:46:53.716Z,141.20
2023-05-24T10:47:52.726Z,140.50
2023-05-24T10:48:53.665Z,131.71
2023-05-24T10:49:53.679Z,127.60
2023-05-24T10:50:52.667Z,139.22
2023-05-24T10:51:52.644Z,137.81
2023-05-24T10:52:53.659Z,135.75
2023-05-24T10:53:53.644Z,131.13
2023-05-24T10:55:03.364Z,128.18
2023-05-24T10:55:53.759Z,128.51
2023-05-24T10:56:53.627Z,129.20
2023-05-24T10:57:53.611Z,129.42
2023-05-24T10:58:53.626Z,129.18
2023-05-24T10:59:53.588Z,128.77
2023-05-24T11:00:53.587Z,129.95
2023-05-24T11:01:53.692Z,134.61
2023-05-24T11:02:52.645Z,135.69
2023-05-24T11:03:52.582Z,139.47
2023-05-24T11:04:53.609Z,139.29
2023-05-24T11:05:53.649Z,141.82
2023-05-24T11:06:52.592Z,145.16
2023-05-24T11:07:52.541Z,145.54
2023-05-24T11:08:53.543Z,149.35
2023-05-24T11:09:53.537Z,150.39
2023-05-24T11:10:53.558Z,155.01
2023-05-24T11:11:52.521Z,157.56
2023-05-24T11:12:52.532Z,157.69
2023-05-24T11:13:53.549Z,159.48
2023-05-24T11:14:53.495Z,159.80
2023-05-24T11:15:53.530Z,163.34
2023-05-24T11:16:53.564Z,163.84
2023-05-24T11:17:53.538Z,164.46
2023-05-24T11:18:53.458Z,167.29
2023-05-24T11:19:53.827Z,166.56
2023-05-24T11:20:53.678Z,165.88
2023-05-24T11:21:52.469Z,167.91
2023-05-24T11:22:53.449Z,166.53
2023-05-24T11:23:52.462Z,169.34
2023-05-24T11:24:53.579Z,170.25
2023-05-24T11:25:52.427Z,174.81
2023-05-24T11:26:52.604Z,171.63
2023-05-24T11:27:52.427Z,173.07
2023-05-24T11:28:53.389Z,176.37
2023-05-24T11:29:52.461Z,166.13
2023-05-24T11:30:53.498Z,157.66
2023-05-24T11:31:52.734Z,155.88
2023-05-24T11:32:53.500Z,137.31
2023-05-24T11:33:53.474Z,131.23
2023-05-24T11:34:53.518Z,113.85
2023-05-24T11:35:53.510Z,116.58
2023-05-24T11:36:52.500Z,106.24
2023-05-24T11:37:52.516Z,99.05
2023-05-24T11:38:53.529Z,91.63
2023-05-24T11:39:53.527Z,88.99
2023-05-24T11:40:52.597Z,83.51
2023-05-24T11:41:53.577Z,75.67
2023-05-24T11:42:53.632Z,77.20
2023-05-24T11:43:52.587Z,72.60
2023-05-24T11:44:52.613Z,73.63
2023-05-24T11:45:52.806Z,71.24
2023-05-24T11:46:53.660Z,71.04
2023-05-24T11:47:52.785Z,69.96
2023-05-24T11:48:52.769Z,73.11
2023-05-24T11:49:52.889Z,69.48
2023-05-24T11:50:53.018Z,69.20
2023-05-24T11:51:53.871Z,71.74
2023-05-24T11:52:53.915Z,70.78
2023-05-24T11:53:54.720Z,68.62
2023-05-24T11:54:52.994Z,71.00
2023-05-24T11:55:54.049Z,70.46
2023-05-24T11:56:53.098Z,69.68
2023-05-24T11:57:54.136Z,70.15
2023-05-24T11:58:53.204Z,69.03
2023-05-24T11:59:53.241Z,69.13
2023-05-24T12:00:53.281Z,70.21
2023-05-24T12:01:53.319Z,74.09
2023-05-24T12:02:56.995Z,72.21
2023-05-24T12:03:54.611Z,76.57
2023-05-24T12:04:54.449Z,75.53
2023-05-24T12:05:53.368Z,74.50
2023-05-24T12:06:54.367Z,74.41
2023-05-24T12:07:54.351Z,72.43
2023-05-24T12:08:54.350Z,71.64
2023-05-24T12:09:53.332Z,73.28
2023-05-24T12:10:54.366Z,73.57
2023-05-24T12:11:53.322Z,71.48
2023-05-24T12:12:54.321Z,72.92
2023-05-24T12:13:54.309Z,72.93
2023-05-24T12:14:53.336Z,72.23
2023-05-24T12:15:56.567Z,71.59
2023-05-24T12:16:53.279Z,71.82
2023-05-24T12:17:54.323Z,72.11
2023-05-24T12:19:05.335Z,72.90
2023-05-24T12:19:54.322Z,72.05
2023-05-24T12:20:54.298Z,72.86
2023-05-24T12:21:54.250Z,73.81
2023-05-24T12:22:54.251Z,75.22
2023-05-24T12:23:53.241Z,77.76
2023-05-24T12:24:53.226Z,77.52
2023-05-24T12:25:53.245Z,78.24
2023-05-24T12:26:54.206Z,75.94
2023-05-24T12:27:54.643Z,78.43
2023-05-24T12:28:53.286Z,76.25
2023-05-24T12:29:54.336Z,77.93
2023-05-24T12:30:54.428Z,77.65
2023-05-24T12:31:54.454Z,75.57
2023-05-24T12:32:54.490Z,76.65
2023-05-24T12:33:54.442Z,75.09
2023-05-24T12:34:53.535Z,75.84
2023-05-24T12:35:53.639Z,77.31
2023-05-24T12:36:54.642Z,79.51
2023-05-24T12:37:53.653Z,78.95
2023-05-24T12:38:54.676Z,79.99
2023-05-24T12:39:54.795Z,77.16
2023-05-24T12:41:10.840Z,79.71
2023-05-24T12:41:54.722Z,79.97
2023-05-24T12:42:54.709Z,80.19
2023-05-24T12:43:53.713Z,80.33
2023-05-24T12:44:54.697Z,81.50
2023-05-24T12:45:54.769Z,80.49
2023-05-24T12:46:54.791Z,82.27
2023-05-24T12:47:54.694Z,81.14